Latest Coastal Weather Observations for Bunbury

IDW60701

Issued at 6:52 am WST Saturday 28 February 2015 (issued every 10 minutes, with the page automatically refreshed every 10 minutes)

About coastal observations | Map of coastal stations | Coastal observations for WA | Marine services | Other Formats
Station Details ID: 009965 Name: BUNBURY Lat: -33.36 Lon: 115.64 Height: 5.2 m
Data from the previous 72 hours. | See also: Recent months at Bunbury
Date/Time
WST
Temp

°C
Wind Pressure Rain
since 9am
mm
Weather Cloud Vis
km
Sea
Height
m
Swell
Dir
 
Speed
knots
Gust
knots
hPa Trend Height
m
Period
s
Dir
28/06:30am 13.4 S 5 7 1018.1 - 0.0 - - - - - - -
28/06:00am 12.9 S 4 6 1017.7 - 0.0 - - - - - - -
28/05:30am 13.4 S 3 4 1017.3 - 0.0 - - - - - - -
28/05:00am 13.7 S 3 5 1017.0 - 0.0 - - - - - - -
28/04:30am 14.3 SSE 4 5 1016.7 - 0.0 - - - - - - -
28/04:00am 14.3 SSE 4 6 1016.4 - 0.0 - - - - - - -
28/03:30am 14.9 SSE 4 6 1016.2 - 0.0 - - - - - - -
28/03:00am 14.9 SSE 4 6 1016.0 - 0.0 - - - - - - -
28/02:30am 15.4 SSE 3 4 1015.9 - 0.0 - - - - - - -
28/02:00am 15.6 S 4 6 1015.7 - 0.0 - - - - - - -
28/01:30am 15.3 S 5 6 1015.7 - 0.0 - - - - - - -
28/01:00am 16.2 S 4 5 1015.8 - 0.0 - - - - - - -
28/12:30am 16.5 SSE 4 5 1015.6 - 0.0 - - - - - - -
28/12:00am 17.0 SSE 5 8 1015.1 - 0.0 - - - - - - -
 
Date/Time
WST
Temp

°C
Wind Pressure Rain
since 9am
mm
Weather Cloud Vis
km
Sea
Height
m
Swell
Dir
 
Speed
knots
Gust
knots
hPa Trend Height
m
Period
s
Dir
27/11:30pm 17.4 SSE 6 10 1014.9 - 0.0 - - - - - - -
27/11:00pm 17.8 SSE 7 10 1014.6 - 0.0 - - - - - - -
27/10:30pm 18.3 SSE 7 12 1014.5 - 0.0 - - - - - - -
27/10:00pm 18.8 S 9 14 1014.5 - 0.0 - - - - - - -
27/09:30pm 19.4 S 11 17 1014.2 - 0.0 - - - - - - -
27/09:00pm 19.8 S 12 16 1013.9 - 0.0 - - - - - - -
27/08:30pm 20.3 S 10 16 1013.4 - 0.0 - - - - - - -
27/08:00pm 20.8 S 9 15 1012.9 - 0.0 - - - - - - -
27/07:30pm 21.7 S 10 17 1012.3 - 0.0 - - - - - - -
27/07:00pm 22.6 SSW 10 15 1011.6 - 0.0 - - - - - - -
27/06:30pm 23.6 S 11 16 1011.2 - 0.0 - - - - - - -
27/06:00pm 24.6 SSW 11 15 1010.8 - 0.0 - - - - - - -
27/05:30pm 24.2 WSW 12 20 1010.5 - 0.0 - - - - - - -
27/05:00pm 24.3 WSW 13 19 1010.1 - 0.0 - - - - - - -
27/04:30pm 24.6 WSW 14 20 1010.0 - 0.0 - - - - - - -
27/04:00pm 24.4 WSW 16 24 1009.8 - 0.0 - - - - - - -
27/03:30pm 25.3 WSW 15 22 1009.7 - 0.0 - - - - - - -
27/03:21pm 25.1 WSW 15 26 1009.6 - 0.0 - - - - - - -
27/03:00pm 25.2 W 14 23 1009.5 - 0.0 - - - - - - -
27/02:30pm 25.8 WSW 14 22 1009.6 - 0.0 - - - - - - -
27/02:00pm 25.7 W 14 21 1009.7 - 0.0 - - - - - - -
27/01:30pm 25.1 WSW 15 22 1009.8 - 0.0 - - - - - - -
27/01:00pm 25.1 W 14 19 1010.0 - 0.0 - - - - - - -
27/12:30pm 25.0 W 13 18 1009.9 - 0.0 - - - - - - -
27/12:00pm 24.4 WSW 12 17 1010.0 - 0.0 - - - - - - -
27/11:30am 24.8 WSW 11 17 1010.2 - 0.0 - - - - - - -
27/11:00am 25.3 SW 9 13 1010.1 - 0.0 - - - - - - -
27/10:30am 25.2 S 9 13 1010.1 - 0.0 - - - - - - -
27/10:00am 25.0 S 8 12 1010.1 - 0.0 - - - - - - -
27/09:30am 23.1 SSW 8 12 1009.9 - 0.0 - - - - - - -
27/09:00am 22.6 S 11 17 1009.8 - 0.8 - - - - - - -
27/08:30am 21.7 SSW 11 17 1009.5 - 0.8 - - - - - - -
27/08:00am 20.1 S 10 14 1009.1 - 0.8 - - - - - - -
27/07:30am 19.8 S 10 15 1009.0 - 0.8 - - - - - - -
27/07:00am 19.4 S 11 16 1008.5 - 0.8 - - - - - - -
27/06:30am 19.7 S 11 18 1008.0 - 0.8 - - - - - - -
27/06:00am 20.2 SSW 10 15 1007.7 - 0.8 - - - - - - -
27/05:30am 20.3 SSW 7 11 1007.0 - 0.8 - - - - - - -
27/05:00am 20.2 SSW 9 13 1006.8 - 0.8 - - - - - - -
27/04:30am 20.2 S 7 13 1006.4 - 0.8 - - - - - - -
27/04:00am 20.1 S 8 12 1005.9 - 0.8 - - - - - - -
27/03:30am 20.5 S 10 14 1005.8 - 0.8 - - - - - - -
27/03:00am 20.6 S 11 15 1005.8 - 0.8 - - - - - - -
27/02:30am 20.7 SSW 10 14 1005.7 - 0.8 - - - - - - -
27/02:00am 20.9 SSW 8 11 1005.5 - 0.8 - - - - - - -
27/01:30am 21.1 SSW 7 12 1005.5 - 0.8 - - - - - - -
27/01:00am 21.1 SW 5 8 1005.6 - 0.8 - - - - - - -
27/12:30am 21.3 SSW 5 7 1005.6 - 0.8 - - - - - - -
27/12:00am 21.4 SSW 4 6 1005.6 - 0.8 - - - - - - -
 
Date/Time
WST
Temp

°C
Wind Pressure Rain
since 9am
mm
Weather Cloud Vis
km
Sea
Height
m
Swell
Dir
 
Speed
knots
Gust
knots
hPa Trend Height
m
Period
s
Dir
26/11:30pm 21.6 SSW 5 7 1005.7 - 0.8 - - - - - - -
26/11:00pm 21.9 S 6 9 1005.6 - 0.8 - - - - - - -
26/10:30pm 22.4 SSW 7 10 1006.1 - 0.8 - - - - - - -
26/10:00pm 22.9 S 6 8 1006.1 - 0.8 - - - - - - -
26/09:30pm 23.0 S 6 8 1006.0 - 0.8 - - - - - - -
26/09:00pm 23.3 S 6 9 1006.1 - 0.8 - - - - - - -
26/08:30pm 23.6 S 7 12 1005.9 - 0.8 - - - - - - -
26/08:00pm 23.9 S 9 13 1005.5 - 0.8 - - - - - - -
26/07:30pm 24.6 SSW 8 12 1005.0 - 0.8 - - - - - - -
26/07:00pm 25.3 S 8 12 1004.6 - 0.8 - - - - - - -
26/06:30pm 26.5 S 9 12 1004.4 - 0.8 - - - - - - -
26/06:00pm 27.1 SSW 4 6 1004.2 - 0.8 - - - - - - -
26/05:30pm 26.4 WSW 5 7 1004.5 - 0.8 - - - - - - -
26/05:00pm 27.0 WSW 7 10 1004.4 - 0.8 - - - - - - -
26/04:30pm 27.7 W 6 9 1004.3 - 0.8 - - - - - - -
26/04:00pm 27.8 W 8 12 1004.3 - 0.8 - - - - - - -
26/03:30pm 26.0 WSW 9 13 1004.5 - 0.8 - - - - - - -
26/03:00pm 27.3 W 9 12 1004.4 - 0.8 - - - - - - -
26/02:30pm 27.9 WSW 8 11 1004.7 - 0.8 - - - - - - -
26/02:00pm 29.5 W 8 11 1004.8 - 0.8 - - - - - - -
26/01:30pm 30.1 WSW 9 12 1004.9 - 0.8 - - - - - - -
26/01:00pm 31.4 SSW 4 6 1005.1 - 0.8 - - - - - - -
26/12:30pm 30.4 SSW 4 6 1005.5 - 0.8 - - - - - - -
26/12:00pm 29.3 SSW 5 7 1006.1 - 0.8 Recent precip. - - - - - -
26/11:30am 28.0 SE 3 4 1006.6 - 0.8 - - - - - - -
26/11:00am 28.6 SE 6 8 1007.0 - 0.0 - - - - - - -
26/10:30am 28.2 SE 3 5 1007.7 - 0.0 - - - - - - -
26/10:00am 26.7 SE 7 9 1007.4 - 0.0 - - - - - - -
26/09:30am 25.2 SSE 6 9 1007.7 - 0.0 - - - - - - -
26/09:00am 23.4 SE 7 10 1007.7 - 5.0 - - - - - - -
26/08:30am 22.7 S 6 9 1008.1 - 5.0 - - - - - - -
26/08:00am 21.9 S 4 6 1007.9 - 5.0 - - - - - - -
26/07:30am 21.5 ESE 3 3 1007.8 - 5.0 - - - - - - -
26/07:00am 20.6 ESE 4 5 1007.4 - 5.0 - - - - - - -
26/06:30am 20.8 ESE 5 7 1007.2 - 5.0 - - - - - - -
26/06:00am 21.1 ESE 4 6 1007.5 - 5.0 Recent precip. - - - - - -
26/05:30am 21.0 SSE 2 5 1007.8 - 4.6 - - - - - - -
26/05:00am 20.9 E 7 10 1006.4 - 4.4 - - - - - - -
26/04:30am 21.2 SSW 1 2 1007.2 - 4.2 - - - - - - -
26/04:00am 21.2 SW 3 4 1006.8 - 4.2 - - - - - - -
26/03:30am 21.5 S 5 7 1006.2 - 4.2 - - - - - - -
26/03:15am 21.7 E 6 11 1005.3 - 4.2 - - - - - - -
26/03:00am 21.9 NNE 3 4 1007.3 - 3.0 Recent precip. - - - - - -
26/02:30am 22.4 SSE 5 9 1006.4 - 2.8 - - - - - - -
26/02:00am 23.1 ESE 4 7 1006.6 - 1.2 - - - - - - -
26/01:30am 25.3 ESE 3 6 1007.0 - 0.0 - - - - - - -
26/01:00am 25.0 ESE 9 13 1006.1 - 0.0 - - - - - - -
26/12:30am 25.1 SSE 2 4 1007.3 - 0.0 - - - - - - -
26/12:00am 25.3 ESE 5 7 1007.2 - 0.0 - - - - - - -
 
Date/Time
WST
Temp

°C
Wind Pressure Rain
since 9am
mm
Weather Cloud Vis
km
Sea
Height
m
Swell
Dir
 
Speed
knots
Gust
knots
hPa Trend Height
m
Period
s
Dir
25/11:30pm 25.3 SE 3 4 1007.5 - 0.0 - - - - - - -
25/11:00pm 25.1 ESE 5 7 1007.7 - 0.0 - - - - - - -
25/10:30pm 25.1 SSE 4 6 1007.6 - 0.0 - - - - - - -
25/10:00pm 25.2 SSE 7 9 1007.5 - 0.0 - - - - - - -
25/09:30pm 25.0 S 7 9 1007.5 - 0.0 - - - - - - -
25/09:00pm 25.1 S 7 9 1007.3 - 0.0 - - - - - - -
25/08:30pm 27.2 SSE 8 11 1007.2 - 0.0 - - - - - - -
25/08:00pm 27.5 SSE 7 9 1007.1 - 0.0 - - - - - - -
25/07:30pm 28.0 SSE 8 11 1006.6 - 0.0 - - - - - - -
25/07:00pm 28.9 S 8 16 1006.3 - 0.0 - - - - - - -
25/06:30pm 30.1 S 11 15 1006.1 - 0.0 - - - - - - -
25/06:00pm 31.8 SSW 11 15 1005.9 - 0.0 - - - - - - -
25/05:30pm 31.6 SW 5 8 1005.8 - 0.0 - - - - - - -
25/05:00pm 31.2 SW 7 12 1005.9 - 0.0 - - - - - - -
25/04:30pm 30.0 SW 10 15 1006.2 - 0.0 - - - - - - -
25/04:00pm 33.3 WSW 8 11 1006.1 - 0.0 - - - - - - -
25/03:30pm 35.6 SW 6 8 1006.0 - 0.0 - - - - - - -
25/03:00pm 35.4 SSW 7 13 1006.1 - 0.0 - - - - - - -
25/02:30pm 35.6 SSW 5 8 1006.5 - 0.0 - - - - - - -
25/02:00pm 35.0 SSW 6 10 1006.7 - 0.0 - - - - - - -
25/01:30pm 34.5 SSE 3 7 1007.2 - 0.0 - - - - - - -
25/01:00pm 32.8 S 4 8 1007.5 - 0.0 - - - - - - -
25/12:30pm 32.2 SSW 4 8 1007.8 - 0.0 - - - - - - -
25/12:00pm 31.6 S 6 9 1008.2 - 0.0 - - - - - - -
25/11:30am 29.0 S 8 10 1008.7 - 0.0 - - - - - - -
25/11:00am 27.5 S 6 9 1009.2 - 0.0 - - - - - - -
25/10:30am 27.7 SSE 6 9 1009.2 - 0.0 - - - - - - -
25/10:00am 27.3 SE 8 12 1009.7 - 0.0 - - - - - - -
25/09:30am 26.5 SE 10 13 1009.8 - 0.0 - - - - - - -
25/09:00am 24.7 SE 10 14 1010.0 - 0.0 - - - - - - -
25/08:30am 22.3 SE 10 15 1010.0 - 0.0 - - - - - - -
25/08:00am 22.8 SE 9 13 1009.5 - 0.0 - - - - - - -
25/07:30am 21.3 SE 10 16 1009.5 - 0.0 - - - - - - -
25/07:00am 20.2 SSE 9 13 1009.3 - 0.0 - - - - - - -

Other Formats:

Comma delimited format used in spreadsheet applications
http://www.bom.gov.au/fwo/IDW60701/IDW60701.94604.axf

JavaScript Object Notation format (JSON) in row-major order
http://www.bom.gov.au/fwo/IDW60701/IDW60701.94604.json